ADDS METAR Data INFO
IDs: Format: Raw Decoded Include TAF

Data at: 1517 UTC 21 Feb 2018

KIOB 211435Z AUTO 35008G19KT 10SM SCT017 BKN027 OVC048 16/12 A3030 RMK AO2
KIOB 211415Z AUTO 25016G21KT 10SM SCT027 SCT037 BKN070 21/16 A3027 RMK AO2
KIOB 211355Z AUTO 24010G19KT 10SM SCT032 SCT040 BKN070 21/16 A3026 RMK AO2
KIOB 211335Z AUTO 24013G19KT 180V260 10SM SCT031 SCT039 BKN070 20/16 A3026 RMK AO2
KIOB 211315Z AUTO 24011G16KT 10SM SCT030 SCT043 BKN060 20/16 A3026 RMK AO2
KIOB 211255Z AUTO 24009KT 10SM BKN031 BKN043 OVC060 20/15 A3026 RMK AO2
KIOB 201515Z AUTO 23014G25KT 130V240 10SM CLR 21/13 A3025 RMK AO2
KIOB 201455Z AUTO 24016G23KT 200V270 10SM CLR 21/13 A3025 RMK AO2
KIOB 201435Z AUTO 24014G26KT 070V010 10SM CLR 20/13 A3025 RMK AO2
KIOB 201415Z AUTO 24015G22KT 230V060 10SM CLR 20/13 A3025 RMK AO2
KIOB 201355Z AUTO 23009G21KT 10SM CLR 19/13 A3024 RMK AO2
KIOB 201335Z AUTO 22015G22KT 10SM CLR 18/13 A3024 RMK AO2
KIOB 201315Z AUTO 23011G16KT 10SM CLR 18/13 A3024 RMK AO2
KIOB 201255Z AUTO 22011G19KT 10SM CLR 17/13 A3024 RMK AO2
KIOB 201235Z AUTO 22010G18KT 10SM CLR 17/13 A3023 RMK AO2
KIOB 201215Z AUTO 23008G16KT 10SM CLR 17/13 A3023 RMK AO2
KIOB 201155Z AUTO 23006G15KT 10SM CLR 18/13 A3023 RMK AO2
KIOB 201135Z AUTO 24010G16KT 10SM CLR 18/13 A3022 RMK AO2
KIOB 201115Z AUTO 23013G18KT 190V250 10SM CLR 18/13 A3022 RMK AO2
KIOB 201055Z AUTO 24011G16KT 10SM CLR 17/13 A3021 RMK AO2
KIOB 201035Z AUTO 23011G15KT 10SM CLR 17/13 A3021 RMK AO2
KIOB 201015Z AUTO 00000KT 10SM CLR 17/13 A3020 RMK AO2
KIOB 200955Z AUTO 00000KT 10SM CLR 17/13 A3020 RMK AO2
KIOB 200935Z AUTO 22005KT 10SM CLR 17/13 A3019 RMK AO2
KIOB 200915Z AUTO 22009G14KT 10SM CLR 17/12 A3019 RMK AO2
KIOB 200855Z AUTO 00000KT 10SM CLR 17/12 A3019 RMK AO2
KIOB 200835Z AUTO 22009KT 10SM SCT047 17/12 A3019 RMK AO2
KIOB 200815Z AUTO 22010KT 10SM SCT047 16/12 A3019 RMK AO2
KIOB 200755Z AUTO 22010G15KT 10SM CLR 16/12 A3019 RMK AO2
KIOB 200735Z AUTO 22010KT 10SM CLR 17/13 A3019 RMK AO2
KIOB 200715Z AUTO 22011G15KT 10SM CLR 16/12 A3019 RMK AO2
KIOB 200655Z AUTO 21010KT 10SM CLR 17/12 A3019 RMK AO2
KIOB 200635Z AUTO 22009G15KT 10SM CLR 17/12 A3020 RMK AO2
KIOB 200615Z AUTO 22011G18KT 10SM CLR 17/13 A3019 RMK AO2
KIOB 200555Z AUTO 22009KT 10SM CLR 17/13 A3019 RMK AO2
KIOB 200535Z AUTO 21010KT 10SM CLR 17/12 A3019 RMK AO2
KIOB 200515Z AUTO 21010G15KT 10SM CLR 17/13 A3019 RMK AO2
KIOB 200455Z AUTO 21009KT 10SM CLR 17/13 A3019 RMK AO2
KIOB 200435Z AUTO 22009KT 10SM SCT055 17/13 A3019 RMK AO2
KIOB 200415Z AUTO 22010KT 10SM CLR 17/12 A3018 RMK AO2
KIOB 200355Z AUTO 22008KT 10SM CLR 17/12 A3018 RMK AO2
KIOB 200335Z AUTO 22009KT 10SM CLR 17/12 A3018 RMK AO2